createdAt,value
2017-12-24T00:00:02.299Z,6.00
2017-12-24T00:02:31.495Z,5.90
2017-12-24T00:05:00.818Z,6.00
2017-12-24T00:07:29.337Z,6.00
2017-12-24T00:09:57.770Z,6.00
2017-12-24T00:12:27.000Z,5.90
2017-12-24T00:14:55.435Z,5.90
2017-12-24T00:17:23.864Z,5.90
2017-12-24T00:19:52.307Z,5.90
2017-12-24T00:22:21.491Z,5.90
2017-12-24T00:24:49.594Z,5.80
2017-12-24T00:27:18.030Z,5.90
2017-12-24T00:29:46.478Z,5.90
2017-12-24T00:32:14.902Z,5.90
2017-12-24T00:34:43.371Z,5.90
2017-12-24T00:37:11.799Z,6.00
2017-12-24T00:39:41.078Z,5.90
2017-12-24T00:42:09.166Z,5.90
2017-12-24T00:44:38.377Z,6.00
2017-12-24T00:47:06.788Z,5.90
2017-12-24T00:49:35.246Z,6.00
2017-12-24T00:52:03.698Z,6.00
2017-12-24T00:54:32.962Z,5.90
2017-12-24T00:57:01.411Z,5.90
2017-12-24T00:59:29.833Z,5.90
2017-12-24T01:01:58.289Z,6.00
2017-12-24T01:04:26.711Z,6.00
2017-12-24T01:06:55.207Z,6.00
2017-12-24T01:09:24.403Z,6.00
2017-12-24T01:11:52.835Z,6.00
2017-12-24T01:14:21.286Z,6.00
2017-12-24T01:16:50.479Z,5.90
2017-12-24T01:19:19.676Z,5.90
2017-12-24T01:21:48.874Z,5.90
2017-12-24T01:24:18.058Z,5.90
2017-12-24T01:26:46.501Z,5.80
2017-12-24T01:29:14.919Z,5.90
2017-12-24T01:31:43.522Z,6.00
2017-12-24T01:34:12.714Z,5.90
2017-12-24T01:36:41.207Z,5.90
2017-12-24T01:39:10.396Z,5.90
2017-12-24T01:41:39.603Z,5.90
2017-12-24T01:44:08.799Z,5.90
2017-12-24T01:46:38.008Z,5.90
2017-12-24T01:49:07.227Z,5.90
2017-12-24T01:51:35.648Z,5.90
2017-12-24T01:54:04.103Z,5.90
2017-12-24T01:56:32.563Z,5.90
2017-12-24T01:59:01.074Z,5.90
2017-12-24T02:01:29.572Z,5.80
2017-12-24T02:03:58.188Z,5.80
2017-12-24T02:06:27.394Z,5.90
2017-12-24T02:08:56.607Z,5.90
2017-12-24T02:11:25.787Z,5.90
2017-12-24T02:13:54.978Z,5.90
2017-12-24T02:16:24.171Z,5.90
2017-12-24T02:18:52.607Z,5.80
2017-12-24T02:21:21.173Z,5.80
2017-12-24T02:23:50.363Z,5.80
2017-12-24T02:26:19.558Z,5.80
2017-12-24T02:28:48.770Z,5.80
2017-12-24T02:31:18.142Z,5.80
2017-12-24T02:33:46.585Z,5.70
2017-12-24T02:36:15.003Z,5.80
2017-12-24T02:38:43.434Z,5.80
2017-12-24T02:41:11.932Z,5.80
2017-12-24T02:43:40.415Z,5.80
2017-12-24T02:46:08.930Z,5.80
2017-12-24T02:48:37.431Z,5.80
2017-12-24T02:51:06.634Z,5.80
2017-12-24T02:53:35.957Z,5.70
2017-12-24T02:56:04.391Z,5.70
2017-12-24T02:58:32.932Z,5.70
2017-12-24T03:01:01.363Z,5.80
2017-12-24T03:03:29.786Z,5.80
2017-12-24T03:05:58.222Z,5.80
2017-12-24T03:08:26.659Z,5.80
2017-12-24T03:10:55.091Z,5.70
2017-12-24T03:13:23.522Z,5.80
2017-12-24T03:15:52.015Z,5.80
2017-12-24T03:18:20.452Z,5.80
2017-12-24T03:20:49.699Z,5.80
2017-12-24T03:23:18.128Z,5.80
2017-12-24T03:25:46.555Z,5.80
2017-12-24T03:28:14.966Z,5.70
2017-12-24T03:30:43.379Z,5.70
2017-12-24T03:33:12.572Z,5.70
2017-12-24T03:35:41.771Z,5.60
2017-12-24T03:38:10.984Z,5.70
2017-12-24T03:40:40.170Z,5.70
2017-12-24T03:43:09.362Z,5.60
2017-12-24T03:45:37.789Z,5.60
2017-12-24T03:48:06.226Z,5.60
2017-12-24T03:50:34.639Z,5.60
2017-12-24T03:53:03.075Z,5.60
2017-12-24T03:55:31.513Z,5.50
2017-12-24T03:57:59.956Z,5.60
2017-12-24T04:00:29.258Z,5.60
2017-12-24T04:02:58.458Z,5.60
2017-12-24T04:05:27.659Z,5.60
2017-12-24T04:07:56.842Z,5.50
2017-12-24T04:10:25.490Z,5.50
2017-12-24T04:12:54.075Z,5.50
2017-12-24T04:15:22.482Z,5.50
2017-12-24T04:17:50.917Z,5.60
2017-12-24T04:20:19.471Z,5.60
2017-12-24T04:22:48.670Z,5.50
2017-12-24T04:25:18.230Z,5.40
2017-12-24T04:27:46.651Z,5.40
2017-12-24T04:30:15.090Z,5.50
2017-12-24T04:32:43.643Z,5.60
2017-12-24T04:35:12.846Z,5.50
2017-12-24T04:37:42.053Z,5.50
2017-12-24T04:40:10.502Z,5.40
2017-12-24T04:42:38.966Z,5.50
2017-12-24T04:45:07.401Z,5.40
2017-12-24T04:47:36.050Z,5.50
2017-12-24T04:50:04.486Z,5.40
2017-12-24T04:52:32.906Z,5.40
2017-12-24T04:55:01.398Z,5.40
2017-12-24T04:57:29.979Z,5.40
2017-12-24T04:59:58.417Z,5.40
2017-12-24T05:02:26.838Z,5.40
2017-12-24T05:04:55.274Z,5.30
2017-12-24T05:07:23.710Z,5.40
2017-12-24T05:09:52.202Z,5.40
2017-12-24T05:12:21.441Z,5.40
2017-12-24T05:14:49.962Z,5.40
2017-12-24T05:17:18.403Z,5.50
2017-12-24T05:19:46.835Z,5.50
2017-12-24T05:22:15.338Z,5.50
2017-12-24T05:24:44.511Z,5.40
2017-12-24T05:27:12.946Z,5.40
2017-12-24T05:29:41.378Z,5.40
2017-12-24T05:32:09.810Z,5.40
2017-12-24T05:34:38.226Z,5.30
2017-12-24T05:37:06.638Z,5.30
2017-12-24T05:39:35.866Z,5.40
2017-12-24T05:42:04.302Z,5.40
2017-12-24T05:44:32.743Z,5.40
2017-12-24T05:47:01.163Z,5.40
2017-12-24T05:49:29.603Z,5.40
2017-12-24T05:51:58.022Z,5.40
2017-12-24T05:54:26.446Z,5.40
2017-12-24T05:56:54.870Z,5.30
2017-12-24T05:59:24.167Z,5.30
2017-12-24T06:01:52.597Z,5.20
2017-12-24T06:04:21.603Z,5.30
2017-12-24T06:06:50.018Z,5.30
2017-12-24T06:09:18.449Z,5.30
2017-12-24T06:11:47.643Z,5.30
2017-12-24T06:14:16.827Z,5.20
2017-12-24T06:16:45.255Z,5.20
2017-12-24T06:19:13.674Z,5.10
2017-12-24T06:21:42.112Z,5.10
2017-12-24T06:24:10.530Z,5.10
2017-12-24T06:26:39.046Z,5.10
2017-12-24T06:29:08.244Z,5.20
2017-12-24T06:31:36.690Z,5.10
2017-12-24T06:34:04.843Z,5.30
2017-12-24T06:36:33.280Z,5.20
2017-12-24T06:39:02.471Z,5.20
2017-12-24T06:41:30.896Z,5.20
2017-12-24T06:43:59.331Z,5.20
2017-12-24T06:46:27.820Z,5.10
2017-12-24T06:48:56.250Z,5.20
2017-12-24T06:51:24.729Z,5.20
2017-12-24T06:53:53.358Z,5.20
2017-12-24T06:56:22.574Z,5.10
2017-12-24T06:58:51.774Z,5.10
2017-12-24T07:01:20.191Z,5.10
2017-12-24T07:03:48.642Z,5.20
2017-12-24T07:06:17.830Z,5.10
2017-12-24T07:08:47.031Z,5.10
2017-12-24T07:11:15.562Z,5.10
2017-12-24T07:13:44.111Z,5.10
2017-12-24T07:16:13.291Z,5.10
2017-12-24T07:18:41.762Z,5.00
2017-12-24T07:21:10.195Z,5.10
2017-12-24T07:23:39.462Z,5.10
2017-12-24T07:26:08.675Z,5.10
2017-12-24T07:28:37.870Z,5.00
2017-12-24T07:31:07.170Z,5.10
2017-12-24T07:33:36.370Z,5.10
2017-12-24T07:36:05.542Z,5.10
2017-12-24T07:38:33.974Z,5.10
2017-12-24T07:41:02.419Z,5.20
2017-12-24T07:43:30.901Z,5.10
2017-12-24T07:45:59.491Z,5.10
2017-12-24T07:48:27.907Z,5.20
2017-12-24T07:50:56.403Z,5.20
2017-12-24T07:53:24.834Z,5.20
2017-12-24T07:55:53.300Z,5.30
2017-12-24T07:58:22.723Z,5.30
2017-12-24T08:00:51.922Z,5.20
2017-12-24T08:03:20.347Z,5.20
2017-12-24T08:05:48.782Z,5.30
2017-12-24T08:08:17.981Z,5.30
2017-12-24T08:10:46.474Z,5.20
2017-12-24T08:13:15.662Z,5.30
2017-12-24T08:15:44.106Z,5.20
2017-12-24T08:18:12.532Z,5.30
2017-12-24T08:20:41.728Z,5.30
2017-12-24T08:23:10.162Z,5.30
2017-12-24T08:25:38.604Z,5.40
2017-12-24T08:28:07.809Z,5.40
2017-12-24T08:30:36.999Z,5.40
2017-12-24T08:33:06.231Z,5.40
2017-12-24T08:35:34.658Z,5.40
2017-12-24T08:38:03.302Z,5.40
2017-12-24T08:40:31.751Z,5.40
2017-12-24T08:43:01.436Z,5.40
2017-12-24T08:45:29.872Z,5.40
2017-12-24T08:47:58.353Z,5.50
2017-12-24T08:50:26.770Z,5.50
2017-12-24T08:52:55.217Z,5.50
2017-12-24T08:55:23.655Z,5.50
2017-12-24T08:57:52.902Z,5.60
2017-12-24T09:00:21.334Z,5.60
2017-12-24T09:02:49.927Z,5.60
2017-12-24T09:05:19.139Z,5.70
2017-12-24T09:07:48.323Z,5.70
2017-12-24T09:10:17.527Z,5.60
2017-12-24T09:12:46.711Z,5.60
2017-12-24T09:15:14.803Z,5.60
2017-12-24T09:17:44.002Z,5.70
2017-12-24T09:20:13.239Z,5.70
2017-12-24T09:22:41.687Z,5.60
2017-12-24T09:25:10.918Z,5.70
2017-12-24T09:27:39.370Z,5.70
2017-12-24T09:30:08.576Z,5.90
2017-12-24T09:32:37.863Z,6.00
2017-12-24T09:35:07.103Z,5.90
2017-12-24T09:37:35.543Z,5.90
2017-12-24T09:40:04.078Z,5.90
2017-12-24T09:42:32.521Z,5.90
2017-12-24T09:45:01.717Z,5.90
2017-12-24T09:47:30.922Z,5.90
2017-12-24T09:50:00.127Z,5.90
2017-12-24T09:52:29.719Z,5.90
2017-12-24T09:54:58.935Z,5.90
2017-12-24T09:57:27.390Z,5.90
2017-12-24T09:59:55.826Z,5.90
2017-12-24T10:02:24.300Z,6.00
2017-12-24T10:04:52.739Z,6.10
2017-12-24T10:07:21.186Z,6.10
2017-12-24T10:09:49.631Z,6.10
2017-12-24T10:12:18.069Z,6.20
2017-12-24T10:14:46.520Z,6.20
2017-12-24T10:17:14.951Z,6.20
2017-12-24T10:19:44.169Z,6.10
2017-12-24T10:22:12.611Z,6.10
2017-12-24T10:24:41.044Z,6.20
2017-12-24T10:27:09.492Z,6.20
2017-12-24T10:29:38.748Z,6.00
2017-12-24T10:32:07.174Z,6.00
2017-12-24T10:34:36.383Z,6.30
2017-12-24T10:37:05.564Z,6.30
2017-12-24T10:39:34.022Z,6.30
2017-12-24T10:42:02.716Z,6.30
2017-12-24T10:44:31.176Z,6.30
2017-12-24T10:46:59.630Z,6.30
2017-12-24T10:49:28.108Z,6.30
2017-12-24T10:51:57.319Z,6.30
2017-12-24T10:54:25.758Z,6.30
2017-12-24T10:56:54.200Z,6.30
2017-12-24T10:59:22.618Z,6.40
2017-12-24T11:01:51.866Z,6.40
2017-12-24T11:04:21.251Z,6.50
2017-12-24T11:06:50.475Z,6.60
2017-12-24T11:09:18.898Z,6.50
2017-12-24T11:11:47.342Z,6.70
2017-12-24T11:14:15.799Z,6.70
2017-12-24T11:16:44.347Z,6.70
2017-12-24T11:19:12.791Z,6.60
2017-12-24T11:21:41.282Z,6.70
2017-12-24T11:24:09.708Z,6.60
2017-12-24T11:26:38.954Z,6.60
2017-12-24T11:29:07.387Z,6.50
2017-12-24T11:31:35.877Z,6.50
2017-12-24T11:34:05.104Z,6.50
2017-12-24T11:36:33.535Z,6.50
2017-12-24T11:39:02.036Z,6.60
2017-12-24T11:41:31.228Z,6.60
2017-12-24T11:43:59.691Z,6.50
2017-12-24T11:46:28.130Z,6.60
2017-12-24T11:48:56.635Z,6.50
2017-12-24T11:51:25.084Z,6.60
2017-12-24T11:53:54.258Z,6.60
2017-12-24T11:56:23.470Z,6.50
2017-12-24T11:58:52.659Z,6.80
2017-12-24T12:01:21.106Z,6.70
2017-12-24T12:03:49.542Z,6.90
2017-12-24T12:06:18.735Z,6.80
2017-12-24T12:08:47.934Z,6.80
2017-12-24T12:11:17.159Z,6.80
2017-12-24T12:13:45.652Z,6.70
2017-12-24T12:16:14.098Z,6.80
2017-12-24T12:18:43.291Z,6.70
2017-12-24T12:21:12.514Z,6.60
2017-12-24T12:23:40.942Z,6.60
2017-12-24T12:26:09.388Z,6.60
2017-12-24T12:28:37.836Z,6.50
2017-12-24T12:31:07.070Z,6.40
2017-12-24T12:33:35.672Z,6.40
2017-12-24T12:36:04.108Z,6.30
2017-12-24T12:38:33.311Z,6.40
2017-12-24T12:41:02.504Z,6.50
2017-12-24T12:43:31.722Z,6.50
2017-12-24T12:46:00.142Z,6.40
2017-12-24T12:48:28.714Z,6.60
2017-12-24T12:50:57.124Z,6.50
2017-12-24T12:53:25.560Z,6.50
2017-12-24T12:55:54.106Z,6.50
2017-12-24T12:58:22.687Z,6.40
2017-12-24T13:00:51.142Z,6.50
2017-12-24T13:03:19.563Z,6.50
2017-12-24T13:05:48.795Z,6.50
2017-12-24T13:08:17.242Z,6.50
2017-12-24T13:10:46.454Z,6.50
2017-12-24T13:13:15.670Z,6.50
2017-12-24T13:15:44.151Z,6.40
2017-12-24T13:18:12.599Z,6.40
2017-12-24T13:20:41.039Z,6.40
2017-12-24T13:23:09.466Z,6.40
2017-12-24T13:25:38.673Z,6.30
2017-12-24T13:28:07.879Z,6.30
2017-12-24T13:30:36.331Z,6.30
2017-12-24T13:33:04.779Z,6.40
2017-12-24T13:35:33.232Z,6.40
2017-12-24T13:38:01.691Z,6.40
2017-12-24T13:40:30.130Z,6.40
2017-12-24T13:42:58.567Z,6.30
2017-12-24T13:45:27.779Z,6.40
2017-12-24T13:47:56.223Z,6.30
2017-12-24T13:50:24.691Z,6.30
2017-12-24T13:52:53.272Z,6.40
2017-12-24T13:55:21.849Z,6.40
2017-12-24T13:57:50.319Z,6.30
2017-12-24T14:00:18.759Z,6.40
2017-12-24T14:02:47.986Z,6.30
2017-12-24T14:05:16.427Z,6.20
2017-12-24T14:07:44.874Z,6.30
2017-12-24T14:10:15.807Z,6.30
2017-12-24T14:12:44.273Z,6.30
2017-12-24T14:15:12.715Z,6.20
2017-12-24T14:17:41.919Z,6.20
2017-12-24T14:20:11.235Z,6.20
2017-12-24T14:22:39.670Z,6.20
2017-12-24T14:25:08.179Z,6.20
2017-12-24T14:27:36.332Z,6.20
2017-12-24T14:30:04.980Z,6.10
2017-12-24T14:32:33.393Z,6.00
2017-12-24T14:35:01.815Z,6.00
2017-12-24T14:37:31.071Z,6.00
2017-12-24T14:39:59.516Z,6.00
2017-12-24T14:42:27.963Z,6.00
2017-12-24T14:44:56.389Z,6.00
2017-12-24T14:47:24.819Z,5.90
2017-12-24T14:49:53.356Z,5.90
2017-12-24T14:52:21.804Z,5.90
2017-12-24T14:54:51.070Z,5.70
2017-12-24T14:57:19.184Z,5.70
2017-12-24T14:59:48.374Z,5.80
2017-12-24T15:02:17.571Z,5.70
2017-12-24T15:04:46.766Z,5.70
2017-12-24T15:07:15.051Z,5.60
2017-12-24T15:09:44.283Z,5.60
2017-12-24T15:12:12.730Z,5.60
2017-12-24T15:14:41.968Z,5.50
2017-12-24T15:17:10.390Z,5.50
2017-12-24T15:19:38.844Z,5.60
2017-12-24T15:22:07.319Z,3.50
2017-12-24T15:24:35.751Z,5.40
2017-12-24T15:27:04.194Z,5.40
2017-12-24T15:29:32.675Z,5.40
2017-12-24T15:32:01.127Z,5.40
2017-12-24T15:34:29.581Z,5.30
2017-12-24T15:36:58.806Z,5.30
2017-12-24T15:39:27.250Z,5.20
2017-12-24T15:41:55.687Z,5.30
2017-12-24T15:44:24.119Z,5.40
2017-12-24T15:46:52.580Z,5.40
2017-12-24T15:49:21.012Z,5.30
2017-12-24T15:51:50.229Z,5.30
2017-12-24T15:54:18.647Z,5.30
2017-12-24T15:56:47.088Z,5.30
2017-12-24T15:59:15.506Z,5.20
2017-12-24T16:01:43.945Z,5.20
2017-12-24T16:04:12.364Z,5.20
2017-12-24T16:06:40.900Z,5.10
2017-12-24T16:09:09.910Z,5.20
2017-12-24T16:11:38.216Z,5.20
2017-12-24T16:14:06.666Z,5.20
2017-12-24T16:16:35.095Z,5.20
2017-12-24T16:19:03.522Z,5.10
2017-12-24T16:21:31.975Z,5.10
2017-12-24T16:24:01.936Z,5.00
2017-12-24T16:26:30.385Z,5.00
2017-12-24T16:28:59.606Z,5.00
2017-12-24T16:31:28.038Z,5.00
2017-12-24T16:33:56.615Z,5.00
2017-12-24T16:36:25.127Z,5.00
2017-12-24T16:38:54.342Z,4.90
2017-12-24T16:41:23.536Z,4.90
2017-12-24T16:43:52.752Z,4.90
2017-12-24T16:46:21.218Z,4.90
2017-12-24T16:48:50.421Z,4.80
2017-12-24T16:51:19.631Z,4.80
2017-12-24T16:53:47.862Z,4.80
2017-12-24T16:56:16.292Z,4.80
2017-12-24T16:58:44.706Z,4.90
2017-12-24T17:01:13.197Z,4.90
2017-12-24T17:03:41.615Z,4.80
2017-12-24T17:06:11.019Z,4.80
2017-12-24T17:08:40.218Z,4.80
2017-12-24T17:11:09.426Z,4.80
2017-12-24T17:13:38.627Z,4.80
2017-12-24T17:16:07.835Z,4.80
2017-12-24T17:18:36.254Z,4.80
2017-12-24T17:21:04.355Z,4.80
2017-12-24T17:23:32.890Z,4.70
2017-12-24T17:26:01.326Z,4.70
2017-12-24T17:28:29.766Z,4.70
2017-12-24T17:30:58.366Z,4.80
2017-12-24T17:33:26.841Z,4.70
2017-12-24T17:35:55.262Z,4.70
2017-12-24T17:38:23.714Z,4.70
2017-12-24T17:40:52.137Z,4.70
2017-12-24T17:43:21.360Z,4.80
2017-12-24T17:45:49.787Z,4.80
2017-12-24T17:48:18.220Z,4.70
2017-12-24T17:50:46.647Z,4.60
2017-12-24T17:53:15.071Z,4.60
2017-12-24T17:55:43.502Z,4.70
2017-12-24T17:58:12.012Z,4.60
2017-12-24T18:00:40.111Z,4.60
2017-12-24T18:03:08.542Z,4.60
2017-12-24T18:05:37.072Z,4.60
2017-12-24T18:08:05.602Z,4.60
2017-12-24T18:10:34.042Z,4.50
2017-12-24T18:13:02.475Z,4.60
2017-12-24T18:15:30.930Z,4.60
2017-12-24T18:17:59.382Z,4.50
2017-12-24T18:20:27.826Z,4.50
2017-12-24T18:22:56.246Z,4.50
2017-12-24T18:25:24.702Z,4.50
2017-12-24T18:27:53.196Z,4.50
2017-12-24T18:30:21.838Z,4.50
2017-12-24T18:32:50.262Z,4.50
2017-12-24T18:35:19.483Z,4.50
2017-12-24T18:37:47.912Z,4.50
2017-12-24T18:40:16.367Z,4.40
2017-12-24T18:42:44.957Z,4.40
2017-12-24T18:45:13.391Z,4.40
2017-12-24T18:47:42.595Z,4.40
2017-12-24T18:50:11.790Z,4.40
2017-12-24T18:52:41.056Z,4.40
2017-12-24T18:55:09.507Z,4.40
2017-12-24T18:57:37.947Z,4.30
2017-12-24T19:00:07.286Z,4.40
2017-12-24T19:02:35.900Z,4.30
2017-12-24T19:05:04.334Z,4.30
2017-12-24T19:07:33.536Z,4.50
2017-12-24T19:10:02.818Z,4.40
2017-12-24T19:12:31.254Z,4.40
2017-12-24T19:14:59.688Z,4.40
2017-12-24T19:17:28.929Z,4.50
2017-12-24T19:19:57.374Z,4.40
2017-12-24T19:22:26.582Z,4.40
2017-12-24T19:24:55.054Z,4.30
2017-12-24T19:27:24.278Z,4.40
2017-12-24T19:29:52.712Z,4.30
2017-12-24T19:32:21.354Z,4.40
2017-12-24T19:34:49.858Z,4.40
2017-12-24T19:37:18.308Z,4.40
2017-12-24T19:39:46.747Z,4.30
2017-12-24T19:42:15.963Z,4.30
2017-12-24T19:44:45.227Z,4.30
2017-12-24T19:47:13.670Z,4.30
2017-12-24T19:49:42.108Z,4.20
2017-12-24T19:52:10.583Z,4.20
2017-12-24T19:54:39.046Z,4.10
2017-12-24T19:57:07.515Z,4.20
2017-12-24T19:59:35.954Z,4.30
2017-12-24T20:02:05.192Z,4.20
2017-12-24T20:04:33.620Z,4.10
2017-12-24T20:07:02.106Z,4.20
2017-12-24T20:09:30.558Z,4.10
2017-12-24T20:11:59.231Z,4.10
2017-12-24T20:14:27.663Z,4.10
2017-12-24T20:16:56.886Z,4.10
2017-12-24T20:19:26.075Z,4.10
2017-12-24T20:21:55.324Z,4.10
2017-12-24T20:24:23.759Z,4.00
2017-12-24T20:26:52.986Z,4.00
2017-12-24T20:29:21.440Z,4.00
2017-12-24T20:31:50.661Z,4.00
2017-12-24T20:34:19.276Z,3.90
2017-12-24T20:36:47.859Z,4.00
2017-12-24T20:39:16.445Z,4.00
2017-12-24T20:41:44.874Z,4.00
2017-12-24T20:44:13.421Z,3.90
2017-12-24T20:46:42.158Z,4.00
2017-12-24T20:49:10.590Z,3.90
2017-12-24T20:51:39.157Z,4.00
2017-12-24T20:54:07.786Z,3.90
2017-12-24T20:56:36.234Z,3.90
2017-12-24T20:59:04.671Z,3.90
2017-12-24T21:01:33.327Z,4.00
2017-12-24T21:04:01.757Z,4.00
2017-12-24T21:06:30.219Z,3.90
2017-12-24T21:08:58.727Z,3.90
2017-12-24T21:11:27.168Z,3.80
2017-12-24T21:13:56.422Z,3.80
2017-12-24T21:16:24.967Z,3.80
2017-12-24T21:18:54.208Z,3.80
2017-12-24T21:21:22.910Z,3.80
2017-12-24T21:23:51.470Z,3.90
2017-12-24T21:26:19.911Z,3.90
2017-12-24T21:28:49.119Z,3.70
2017-12-24T21:31:18.426Z,3.80
2017-12-24T21:33:46.891Z,3.70
2017-12-24T21:36:16.303Z,3.90
2017-12-24T21:38:45.523Z,3.80
2017-12-24T21:41:13.967Z,3.70
2017-12-24T21:43:42.411Z,3.80
2017-12-24T21:46:10.851Z,3.80
2017-12-24T21:48:40.051Z,3.80
2017-12-24T21:51:09.257Z,3.80
2017-12-24T21:53:37.762Z,3.70
2017-12-24T21:56:06.222Z,3.80
2017-12-24T21:58:34.646Z,3.80
2017-12-24T22:01:03.067Z,3.90
2017-12-24T22:03:32.274Z,3.70
2017-12-24T22:06:01.458Z,3.80
2017-12-24T22:08:29.898Z,3.80
2017-12-24T22:10:58.325Z,3.80
2017-12-24T22:13:27.384Z,3.80
2017-12-24T22:15:55.855Z,3.80
2017-12-24T22:18:24.298Z,3.80
2017-12-24T22:20:53.494Z,3.60
2017-12-24T22:23:22.702Z,3.70
2017-12-24T22:25:51.157Z,3.60
2017-12-24T22:28:19.621Z,3.60
2017-12-24T22:30:48.055Z,3.50
2017-12-24T22:33:16.516Z,3.60
2017-12-24T22:35:45.706Z,3.70
2017-12-24T22:38:14.917Z,3.70
2017-12-24T22:40:44.172Z,3.70
2017-12-24T22:43:12.623Z,3.70
2017-12-24T22:45:41.063Z,3.80
2017-12-24T22:48:09.484Z,3.70
2017-12-24T22:50:37.930Z,3.80
2017-12-24T22:53:06.369Z,3.70
2017-12-24T22:55:34.843Z,3.70
2017-12-24T22:58:03.300Z,3.80
2017-12-24T23:00:32.691Z,3.80
2017-12-24T23:03:01.906Z,3.80
2017-12-24T23:05:31.095Z,3.80
2017-12-24T23:08:00.306Z,3.80
2017-12-24T23:10:28.736Z,3.80
2017-12-24T23:12:57.182Z,3.80
2017-12-24T23:15:25.606Z,3.90
2017-12-24T23:17:54.053Z,3.80
2017-12-24T23:20:22.490Z,3.90
2017-12-24T23:22:51.698Z,3.70
2017-12-24T23:25:20.885Z,3.70
2017-12-24T23:27:49.775Z,3.70
2017-12-24T23:30:18.213Z,3.70
2017-12-24T23:32:46.650Z,3.70
2017-12-24T23:35:15.854Z,3.80
2017-12-24T23:37:45.050Z,3.80
2017-12-24T23:40:14.285Z,3.70
2017-12-24T23:42:42.782Z,3.70
2017-12-24T23:45:11.214Z,3.80
2017-12-24T23:47:40.398Z,3.70
2017-12-24T23:50:08.834Z,3.70
2017-12-24T23:52:37.286Z,3.70
2017-12-24T23:55:06.500Z,3.80
2017-12-24T23:57:34.911Z,3.70
